Flight Track Log - Related Links

Times and Time Zones

All times are in EDT time to prevent confusion due to time zone crossing. See the PDT4236 flight status page for this flight to view local times or setup timezone preferences in your user account.

Time Position Orientation Groundspeed Altitude Reporting Facility
EDT Latitude Longitude Course Direction KTS MPH feet Rate Location/Type
Mon 02:39:59 PM 35.1972 -80.9431 340° North 134 154 1,500  Level Atlanta Center
Mon 02:41:07 PM 35.1861 -80.9969 256° West 167 192 2,700 1,329 Climbing Atlanta Center
Mon 02:42:00 PM 35.3733 -81.0200 338° Northwest  Level FlightAware Approximate
Mon 02:42:19 PM 35.1919 -81.0653 276° West 168 193 4,600  Level Atlanta Center
Mon 02:43:00 PM 35.4436 -81.0458 347° North  Level FlightAware Approximate
Mon 02:43:20 PM 35.1956 -81.1286 274° West 203 234 4,900  Level Atlanta Center
Mon 02:44:00 PM 35.5154 -81.0663 347° North  Level FlightAware Approximate
Mon 02:44:44 PM 35.2267 -81.2064 296° West 230 265 6,800  Level Atlanta Center
Mon 02:45:00 PM 35.5811 -81.1046 340° North  Level FlightAware Approximate
Mon 02:45:44 PM 35.2767 -81.2122 355° North 175 201 8,100  Level Atlanta Center
Mon 02:46:44 PM 35.3250 -81.2183 354° North 170 196 9,500 1,300 Climbing Atlanta Center
Mon 02:47:44 PM 35.3722 -81.1911 25° Northeast 176 203 10,700 1,250 Climbing Atlanta Center
Mon 02:48:44 PM 35.4197 -81.1642 25° Northeast 188 216 12,000 1,200 Climbing Atlanta Center
Mon 02:49:44 PM 35.4650 -81.1394 24° Northeast 188 216 13,100 1,000 Climbing Atlanta Center
Mon 02:50:44 PM 35.5167 -81.1172 19° North 188 216 14,000 950 Climbing Atlanta Center
Mon 02:51:44 PM 35.5631 -81.1386 339° North 177 204 15,000 1,000 Climbing Atlanta Center
Mon 02:52:44 PM 35.6158 -81.1622 340° North 194 223 16,000 950 Climbing Atlanta Center
Mon 02:53:44 PM 35.6683 -81.1886 338° Northwest 200 230 16,900 850 Climbing Atlanta Center
Mon 02:54:44 PM 35.7192 -81.2150 337° Northwest 193 222 17,700 800 Climbing Atlanta Center
Mon 02:55:44 PM 35.7719 -81.2414 338° Northwest 193 222 18,500 800 Climbing Atlanta Center
Mon 02:56:44 PM 35.8247 -81.2675 338° Northwest 198 228 19,300 750 Climbing Atlanta Center
Mon 02:57:44 PM 35.8817 -81.2939 339° North 198 228 20,000 350 Climbing Atlanta Center
Mon 02:58:44 PM 35.9386 -81.3228 338° Northwest 208 239 20,000  Level Atlanta Center
Mon 02:59:44 PM 35.9997 -81.3542 337° Northwest 219 252 20,000  Level Atlanta Center
Mon 03:00:44 PM 36.0650 -81.3853 339° North 233 268 20,000  Level Atlanta Center
Mon 03:01:44 PM 36.1283 -81.4167 338° Northwest 246 283 20,000  Level Atlanta Center
Mon 03:02:44 PM 36.1936 -81.4481 339° North 246 283 20,000  Level Atlanta Center
Mon 03:03:44 PM 36.2611 -81.4844 337° Northwest 255 293 20,000  Level Atlanta Center
Mon 03:04:44 PM 36.3264 -81.5158 339° North 255 293 20,000  Level Atlanta Center
Mon 03:05:44 PM 36.3939 -81.5497 338° Northwest 255 293 20,000  Level Atlanta Center
Mon 03:06:44 PM 36.4633 -81.5811 340° North 255 293 20,000  Level Atlanta Center
Mon 03:07:44 PM 36.5286 -81.6153 337° Northwest 255 293 20,000  Level Atlanta Center
Mon 03:08:44 PM 36.5981 -81.6494 338° Northwest 255 293 20,000  Level Atlanta Center
Mon 03:09:44 PM 36.6656 -81.6864 336° Northwest 255 293 20,000  Level Atlanta Center
Mon 03:10:44 PM 36.7350 -81.7178 340° North 255 293 20,000  Level Atlanta Center
Mon 03:11:44 PM 36.8044 -81.7522 338° Northwest 255 293 20,000  Level Atlanta Center
Mon 03:12:44 PM 36.8697 -81.7892 336° Northwest 255 293 20,000  Level Atlanta Center
Mon 03:13:54 PM 36.9506 -81.8272 339° North 263 303 20,000  Level Indianapolis Center
Mon 03:14:56 PM 37.0197 -81.8633 337° Northwest 268 308 20,000  Level Indianapolis Center
Mon 03:15:58 PM 37.0897 -81.8981 338° Northwest 270 311 20,000 -387 Level Indianapolis Center
Mon 03:17:00 PM 37.1603 -81.9336 338° Northwest 273 314 19,200 -871 Descending Indianapolis Center
Mon 03:18:02 PM 37.2356 -81.9719 338° Northwest 290 334 18,200 -871 Descending Indianapolis Center
Mon 03:19:04 PM 37.3117 -82.0125 337° Northwest 295 339 17,400 -968 Descending Indianapolis Center
Mon 03:20:06 PM 37.3981 -82.0550 339° North 288 331 16,200 -1,065 Descending Indianapolis Center
Mon 03:21:08 PM 37.4703 -82.0928 337° Northwest 283 326 15,200 -968 Descending Indianapolis Center
Mon 03:22:10 PM 37.5406 -82.1286 338° Northwest 273 314 14,200 -968 Descending Indianapolis Center
Mon 03:23:12 PM 37.6103 -82.1661 337° Northwest 272 313 13,200 -1,016 Descending Indianapolis Center
Mon 03:24:14 PM 37.6786 -82.1997 339° North 265 305 12,100 -1,065 Descending Indianapolis Center
Mon 03:25:16 PM 37.7606 -82.2433 337° Northwest 270 311 11,000 -726 Descending Indianapolis Center
Mon 03:26:18 PM 37.8267 -82.2783 337° Northwest 258 297 10,600 -581 Descending Indianapolis Center
Mon 03:27:20 PM 37.8914 -82.3117 338° Northwest 253 291 9,800 -1,296 Descending Indianapolis Center
Mon 03:28:23 PM 37.9517 -82.3597 328° Northwest 262 302 7,900 -1,872 Descending Indianapolis Center
Mon 03:29:25 PM 37.9958 -82.4319 308° West 260 299 5,900 -1,403 Descending Indianapolis Center
Mon 03:30:27 PM 38.0550 -82.5056 316° Northwest 256 295 5,000 -435 Descending Indianapolis Center
Mon 03:31:29 PM 38.1100 -82.5442 331° Northwest 235 270 5,000 -726 Level Indianapolis Center
Mon 03:32:31 PM 38.1625 -82.5911 325° Northwest 229 264 3,500 -1,016 Descending Indianapolis Center
Mon 03:33:33 PM 38.2186 -82.6319 330° Northwest 232 267 2,900 -435 Descending Indianapolis Center
Mon 03:34:35 PM 38.2808 -82.6300 North 230 265 2,600 -387 Descending Indianapolis Center
Mon 03:35:37 PM 38.3356 -82.6108 15° North 186 214 2,100 -484 Descending Indianapolis Center

Login

Don't have an account? Register now (free) for customized features, flight alerts, and more!